Time;durP1;ratioP1;P1;durP2;ratioP2;P2;SDS_P1;SDS_P2;PMS_P1;PMS_P2;Temp;Humidity;BMP_temperature;BMP_pressure;BME280_temperature;BME280_humidity;BME280_pressure;Samples;Min_cycle;Max_cycle;Signal;HPM_P1;HPM_P2
2024/01/23 00:01:08;;;;;;;31.30;14.40;;;;;;;-147.86;100.00;-14490.96;105901;1253;60644;-45
2024/01/23 00:03:36;;;;;;;31.20;14.40;;;;;;;-147.86;100.00;-14521.05;105916;1254;72396;-45
2024/01/23 00:06:04;;;;;;;30.20;15.40;;;;;;;-147.86;100.00;-14614.03;105919;1256;65464;-46
2024/01/23 00:08:32;;;;;;;25.40;14.30;;;;;;;-147.86;100.00;-14695.04;105926;1255;72547;-45
2024/01/23 00:11:03;;;;;;;28.40;13.90;;;;;;;-147.86;100.00;-14783.77;105872;1253;61920;-46
2024/01/23 00:13:30;;;;;;;31.20;13.30;;;;;;;-147.86;100.00;-14803.06;105920;1253;60377;-46
2024/01/23 00:15:56;;;;;;;25.80;12.40;;;;;;;-147.86;100.00;-14855.52;105860;1255;73811;-45
2024/01/23 00:18:23;;;;;;;30.40;13.70;;;;;;;-147.86;100.00;-14963.15;105935;1256;65220;-46
2024/01/23 00:20:51;;;;;;;30.10;13.30;;;;;;;-147.86;100.00;-14997.86;105891;1253;71221;-46
2024/01/23 00:23:18;;;;;;;29.30;13.20;;;;;;;-147.86;100.00;-14971.25;105925;1256;60352;-45
2024/01/23 00:25:45;;;;;;;30.60;13.80;;;;;;;-147.86;100.00;-15001.72;105510;1252;553927;-46
2024/01/23 00:28:13;;;;;;;34.10;13.80;;;;;;;-147.86;100.00;-15029.50;105913;1252;73616;-46
2024/01/23 00:32:01;;;;;;;29.50;13.30;;;;;;;-147.86;100.00;33271.32;102963;1292;600928;-46
2024/01/23 00:34:29;;;;;;;27.80;13.70;;;;;;;-147.86;100.00;3616.08;105160;1264;59350;-45
2024/01/23 00:36:58;;;;;;;30.70;13.00;;;;;;;-147.86;100.00;-1564.17;105178;1264;59963;-45
2024/01/23 00:39:26;;;;;;;31.50;14.10;;;;;;;-147.86;100.00;-5140.51;105172;1264;72186;-46
2024/01/23 00:41:54;;;;;;;30.30;13.00;;;;;;;-147.86;100.00;-7631.48;105119;1264;63903;-46
2024/01/23 00:44:22;;;;;;;33.20;15.00;;;;;;;-147.86;100.00;-9460.69;105021;1269;71887;-46
2024/01/23 00:46:51;;;;;;;29.00;14.40;;;;;;;-147.86;100.00;-10900.57;105080;1264;223587;-45
2024/01/23 00:49:18;;;;;;;29.10;14.10;;;;;;;-147.86;100.00;-12037.65;105188;1261;60248;-46
2024/01/23 00:51:46;;;;;;;28.70;14.60;;;;;;;-147.86;100.00;-12958.26;105235;1261;70957;-46
2024/01/23 00:54:14;;;;;;;30.30;14.10;;;;;;;-147.86;100.00;-13767.91;105155;1264;64305;-46
2024/01/23 00:56:42;;;;;;;26.70;12.80;;;;;;;-147.86;100.00;-14408.02;105160;1264;70089;-45
2024/01/23 00:59:12;;;;;;;38.10;13.90;;;;;;;-147.86;100.00;-14905.67;105216;1264;59644;-46
2024/01/23 01:01:40;;;;;;;34.00;15.20;;;;;;;-147.86;100.00;-15340.40;105262;1264;59836;-46
2024/01/23 01:04:08;;;;;;;37.90;16.50;;;;;;;-147.86;100.00;-15682.51;105267;1260;73095;-46
2024/01/23 01:06:36;;;;;;;32.90;15.50;;;;;;;-147.86;100.00;-15966.36;105284;1260;64394;-46
2024/01/23 01:09:03;;;;;;;40.80;16.40;;;;;;;-147.86;100.00;-16147.61;105228;1265;72688;-45
2024/01/23 01:11:32;;;;;;;40.70;17.10;;;;;;;-147.86;100.00;-16271.39;105226;1260;59672;-46
2024/01/23 01:14:00;;;;;;;32.60;14.60;;;;;;;-147.86;100.00;-16301.47;105297;1259;60402;-45
2024/01/23 01:16:28;;;;;;;45.80;20.90;;;;;;;-147.86;100.00;-16258.28;105266;1261;71764;-46
2024/01/23 01:18:58;;;;;;;41.60;18.50;;;;;;;-147.86;100.00;-16176.52;105257;1259;65305;-45
2024/01/23 01:21:26;;;;;;;41.90;19.20;;;;;;;-147.86;100.00;-16109.03;105263;1261;72640;-46
2024/01/23 01:23:54;;;;;;;52.00;20.80;;;;;;;-147.86;100.00;-15988.71;105239;1260;59609;-47
2024/01/23 01:26:22;;;;;;;42.70;19.90;;;;;;;-147.86;100.00;-15884.97;105289;1263;59688;-46
2024/01/23 01:28:50;;;;;;;55.20;19.80;;;;;;;-147.86;100.00;-15739.57;109000;1259;71875;-45
2024/01/23 01:31:17;;;;;;;45.00;19.90;;;;;;;-147.86;100.00;-15594.94;109002;1259;65156;-44
2024/01/23 01:33:45;;;;;;;59.50;23.40;;;;;;;-147.86;100.00;-15459.94;108984;1259;72644;-44
2024/01/23 01:36:13;;;;;;;55.30;21.90;;;;;;;-147.86;100.00;-15348.86;108995;1258;61644;-45
2024/01/23 01:38:41;;;;;;;56.20;23.00;;;;;;;-147.86;100.00;-15242.78;109003;1259;58132;-45
2024/01/23 01:41:14;;;;;;;68.40;27.70;;;;;;;-147.86;100.00;-15278.25;108983;1259;71730;-44
2024/01/23 01:46:49;;;;;;;59.30;25.90;;;;;;;-147.86;100.00;4466.70;102827;1289;601155;-46
2024/01/23 01:49:16;;;;;;;52.00;22.80;;;;;;;-147.86;100.00;-15049.11;105186;1264;60820;-45
2024/01/23 01:51:44;;;;;;;62.20;23.10;;;;;;;-147.86;100.00;-14776.41;105135;1269;59263;-46
2024/01/23 01:54:12;;;;;;;58.80;25.40;;;;;;;-147.86;100.00;-14623.25;105106;1269;72233;-46
2024/01/23 01:56:40;;;;;;;56.40;22.50;;;;;;;-147.86;100.00;-14502.50;105154;1263;65124;-46
2024/01/23 01:59:09;;;;;;;53.80;21.50;;;;;;;-147.86;100.00;-14396.01;105187;1268;71699;-46
2024/01/23 02:01:37;;;;;;;45.50;20.10;;;;;;;-147.86;100.00;-14300.33;105095;1260;188264;-45
2024/01/23 02:04:05;;;;;;;43.70;20.20;;;;;;;-147.86;100.00;-14201.95;105211;1267;59688;-46
2024/01/23 02:06:35;;;;;;;44.00;18.20;;;;;;;-147.86;100.00;-14124.01;105244;1264;70505;-45
2024/01/23 02:09:04;;;;;;;37.20;16.10;;;;;;;-147.86;100.00;-14123.61;105248;1261;64121;-46
2024/01/23 02:11:33;;;;;;;34.80;14.70;;;;;;;-147.86;100.00;-14020.60;105270;1260;72597;-45
2024/01/23 02:14:01;;;;;;;24.70;12.70;;;;;;;-147.86;100.00;-13953.08;105280;1263;59769;-45
2024/01/23 02:16:29;;;;;;;20.80;11.40;;;;;;;-147.86;100.00;-13927.23;105278;1265;59660;-45
2024/01/23 02:18:56;;;;;;;22.60;11.80;;;;;;;-147.86;100.00;-13907.17;105246;1260;72498;-46
2024/01/23 02:21:24;;;;;;;31.50;12.30;;;;;;;-147.86;100.00;-13887.10;105231;1266;63867;-46
2024/01/23 02:23:52;;;;;;;24.70;11.30;;;;;;;-147.86;100.00;-13835.39;105243;1263;70425;-45
2024/01/23 02:26:20;;;;;;;28.60;14.10;;;;;;;-147.86;100.00;-13771.34;105223;1263;59669;-46
2024/01/23 02:28:47;;;;;;;22.00;11.00;;;;;;;-147.86;100.00;-13698.02;105232;1267;59777;-46
2024/01/23 02:31:15;;;;;;;20.70;10.20;;;;;;;-147.86;100.00;-13637.05;105643;1254;72788;-45
2024/01/23 02:33:43;;;;;;;23.60;10.00;;;;;;;-147.86;100.00;-13562.96;105657;1254;65248;-46
2024/01/23 02:36:11;;;;;;;20.70;10.80;;;;;;;-147.86;100.00;-13463.01;105667;1255;71376;-46
2024/01/23 02:38:39;;;;;;;29.30;12.20;;;;;;;-147.86;100.00;-13330.64;105612;1260;59733;-45
2024/01/23 02:41:07;;;;;;;26.70;12.80;;;;;;;-147.86;100.00;-13243.03;105691;1260;59644;-45
2024/01/23 02:43:38;;;;;;;23.50;9.60;;;;;;;-147.86;100.00;-13088.66;105585;1257;71689;-46
2024/01/23 02:46:07;;;;;;;14.10;8.00;;;;;;;-147.86;100.00;-13094.81;105631;1260;64384;-45
2024/01/23 02:48:35;;;;;;;18.70;8.10;;;;;;;-147.86;100.00;-12911.51;105581;1260;72666;-46
2024/01/23 02:51:04;;;;;;;17.10;8.80;;;;;;;-147.86;100.00;-12937.37;105579;1257;61595;-46
2024/01/23 02:53:32;;;;;;;16.10;8.80;;;;;;;-147.86;100.00;-12866.74;105667;1257;59908;-45
2024/01/23 02:56:00;;;;;;;16.70;8.20;;;;;;;-147.86;100.00;-12812.70;105630;1257;71829;-46
2024/01/23 02:58:28;;;;;;;16.00;9.00;;;;;;;-147.86;100.00;-12696.53;105636;1258;63445;-45
2024/01/23 03:00:56;;;;;;;18.00;9.10;;;;;;;-147.86;100.00;-12614.69;105614;1257;72279;-46
2024/01/23 03:03:24;;;;;;;18.10;8.90;;;;;;;-147.86;100.00;-12540.59;105570;1258;60359;-46
2024/01/23 03:05:52;;;;;;;18.90;8.90;;;;;;;-147.86;100.00;-12478.05;105621;1260;59653;-46
2024/01/23 03:08:22;;;;;;;16.40;8.10;;;;;;;-147.86;100.00;-12422.08;105587;1255;71911;-45
2024/01/23 03:10:50;;;;;;;32.30;14.30;;;;;;;-147.86;100.00;-12393.89;105622;1257;64409;-46
2024/01/23 03:13:18;;;;;;;32.80;12.60;;;;;;;-147.86;100.00;-12241.43;105584;1257;71351;-46
2024/01/23 03:15:48;;;;;;;16.90;9.10;;;;;;;-147.86;100.00;-12212.86;105645;1257;59640;-45
2024/01/23 03:18:15;;;;;;;18.10;8.80;;;;;;;-147.86;100.00;-12210.92;105651;1257;59673;-44
2024/01/23 03:20:43;;;;;;;17.50;9.40;;;;;;;-147.86;100.00;-12129.86;105625;1256;71762;-46
2024/01/23 03:23:11;;;;;;;24.70;9.40;;;;;;;-147.86;100.00;-12109.02;105618;1260;65126;-46
2024/01/23 03:25:39;;;;;;;13.50;7.80;;;;;;;-147.86;100.00;-12096.67;105570;1257;71425;-47
2024/01/23 03:28:07;;;;;;;23.70;11.40;;;;;;;-147.86;100.00;-12113.65;105511;1257;59631;-46
2024/01/23 03:30:35;;;;;;;14.80;7.50;;;;;;;-147.86;100.00;-12087.01;105640;1258;60015;-46
2024/01/23 03:33:03;;;;;;;17.60;8.60;;;;;;;-147.86;100.00;-12067.32;105579;1255;71771;-46
2024/01/23 03:35:31;;;;;;;18.10;8.20;;;;;;;-147.86;100.00;-12005.55;105614;1257;64082;-45
2024/01/23 03:38:00;;;;;;;20.40;9.80;;;;;;;-147.86;100.00;-11920.23;105572;1257;71556;-46
2024/01/23 03:40:27;;;;;;;13.40;7.90;;;;;;;-147.86;100.00;-11858.47;105592;1260;59844;-46
2024/01/23 03:42:55;;;;;;;15.80;8.40;;;;;;;-147.86;100.00;-11834.92;105580;1263;59643;-45
2024/01/23 03:45:23;;;;;;;11.90;6.70;;;;;;;-147.86;100.00;-11754.61;105584;1260;72456;-46
2024/01/23 03:47:50;;;;;;;11.00;7.20;;;;;;;-147.86;100.00;-11679.71;105646;1261;65115;-46
2024/01/23 03:50:18;;;;;;;11.90;7.60;;;;;;;-147.86;100.00;-11563.11;105538;1257;71410;-46
2024/01/23 03:52:46;;;;;;;11.70;6.70;;;;;;;-147.86;100.00;-11484.35;105602;1257;59681;-45
2024/01/23 03:55:14;;;;;;;14.70;7.00;;;;;;;-147.86;100.00;-11405.58;105588;1257;59938;-46
2024/01/23 03:57:44;;;;;;;11.30;6.30;;;;;;;-147.86;100.00;-11324.49;105597;1256;72994;-46
2024/01/23 04:00:12;;;;;;;11.90;7.10;;;;;;;-147.86;100.00;-11298.61;105620;1257;63995;-45
2024/01/23 04:02:41;;;;;;;12.80;7.40;;;;;;;-147.86;100.00;-11173.52;105572;1257;71358;-45
2024/01/23 04:05:09;;;;;;;8.00;6.50;;;;;;;-147.86;100.00;-11074.67;105636;1258;60385;-46
2024/01/23 04:07:36;;;;;;;10.50;6.50;;;;;;;-147.86;100.00;-10987.40;105546;1260;59580;-46
2024/01/23 04:10:04;;;;;;;8.30;6.20;;;;;;;-147.86;100.00;-10909.78;105594;1260;72817;-45
2024/01/23 04:12:32;;;;;;;10.90;6.40;;;;;;;-147.86;100.00;-10835.25;105628;1256;63011;-45
2024/01/23 04:15:00;;;;;;;12.30;6.90;;;;;;;-147.86;100.00;-10734.84;105586;1257;71434;-44
2024/01/23 04:17:29;;;;;;;9.70;6.50;;;;;;;-147.86;100.00;-10662.24;105639;1257;60400;-45
2024/01/23 04:19:57;;;;;;;7.40;6.00;;;;;;;-147.86;100.00;-10635.97;105612;1260;59775;-46
2024/01/23 04:22:26;;;;;;;10.80;6.80;;;;;;;-147.86;100.00;-10542.52;105543;1260;71564;-46
2024/01/23 04:24:54;;;;;;;9.30;5.80;;;;;;;-147.86;100.00;-10469.92;105488;1260;63969;-45
2024/01/23 04:27:21;;;;;;;7.10;5.30;;;;;;;-147.86;100.00;-10419.32;105424;1260;71387;-46
2024/01/23 04:29:49;;;;;;;10.70;5.80;;;;;;;-147.86;100.00;-10386.11;105334;1261;59663;-45
2024/01/23 04:32:19;;;;;;;11.60;5.90;;;;;;;-147.86;100.00;-10313.89;105626;1257;59614;-46
2024/01/23 04:34:47;;;;;;;8.40;5.70;;;;;;;-147.86;100.00;-10334.33;105607;1257;72277;-45
2024/01/23 04:37:15;;;;;;;7.30;5.40;;;;;;;-147.86;100.00;-10224.28;105602;1256;63907;-45
2024/01/23 04:39:47;;;;;;;12.30;6.20;;;;;;;-147.86;100.00;-10298.79;105590;1257;71370;-46
2024/01/23 04:42:15;;;;;;;9.10;5.80;;;;;;;-147.86;100.00;-10158.23;105653;1257;59717;-45
2024/01/23 04:44:43;;;;;;;8.60;5.80;;;;;;;-147.86;100.00;-10114.98;105611;1260;59727;-45
2024/01/23 05:47:51;;;;;;;12.70;7.30;;;;;;;-147.86;100.00;8344.60;102725;1295;600313;-46
2024/01/23 05:50:20;;;;;;;16.80;8.50;;;;;;;-147.86;100.00;-10698.85;105131;1269;59352;-46
2024/01/23 05:52:47;;;;;;;20.90;9.90;;;;;;;-147.86;100.00;-10452.53;104900;1269;60205;-47
2024/01/23 05:55:15;;;;;;;17.20;9.00;;;;;;;-147.86;100.00;-10419.33;104849;1264;70680;-45
2024/01/23 05:57:43;;;;;;;18.20;9.20;;;;;;;-147.86;100.00;-10419.33;104882;1270;63466;-45
2024/01/23 06:00:13;;;;;;;19.00;10.90;;;;;;;-147.86;100.00;-10358.69;108710;1263;71434;-43
2024/01/23 06:02:41;;;;;;;22.40;10.50;;;;;;;-147.86;100.00;-10340.50;108696;1261;199039;-43
2024/01/23 06:05:09;;;;;;;24.40;12.70;;;;;;;-147.86;100.00;-10123.47;108836;1262;60052;-44
2024/01/23 06:07:40;;;;;;;31.90;12.80;;;;;;;-147.86;100.00;-10040.82;108924;1262;72289;-44
2024/01/23 06:10:09;;;;;;;28.30;13.90;;;;;;;-147.86;100.00;-10111.84;108822;1263;65168;-44
2024/01/23 06:12:37;;;;;;;37.10;14.40;;;;;;;-147.86;100.00;-9917.59;108862;1262;71801;-44
2024/01/23 06:15:06;;;;;;;37.30;15.50;;;;;;;-147.86;100.00;-9784.33;108837;1263;59322;-44
2024/01/23 06:17:34;;;;;;;34.90;16.10;;;;;;;-147.86;100.00;-9756.51;108835;1262;58723;-44
2024/01/23 06:20:05;;;;;;;37.20;15.00;;;;;;;-147.86;100.00;-9578.44;108926;1263;73006;-44
2024/01/23 06:22:34;;;;;;;34.90;15.90;;;;;;;-147.86;100.00;-9626.30;108948;1262;64057;-44
2024/01/23 06:25:05;;;;;;;34.00;14.80;;;;;;;-147.86;100.00;-9447.09;108882;1262;72630;-45
2024/01/23 06:27:33;;;;;;;34.00;15.10;;;;;;;-147.86;100.00;-9469.08;108822;1263;59299;-44
2024/01/23 06:30:01;;;;;;;29.70;14.10;;;;;;;-147.86;100.00;-9233.08;108912;1262;58781;-45
2024/01/23 06:32:30;;;;;;;30.30;15.00;;;;;;;-147.86;100.00;-9136.49;108864;1262;73046;-44
2024/01/23 06:34:58;;;;;;;29.70;15.60;;;;;;;-147.86;100.00;-9054.20;108829;1263;65345;-45
2024/01/23 06:37:26;;;;;;;40.80;16.20;;;;;;;-147.86;100.00;-8947.18;108833;1262;72723;-45
2024/01/23 06:39:53;;;;;;;37.20;16.80;;;;;;;-147.86;100.00;-8839.00;108825;1264;59902;-45
2024/01/23 06:42:23;;;;;;;28.10;14.40;;;;;;;-147.86;100.00;-8869.88;108856;1262;59318;-44
2024/01/23 06:47:39;;;;;;;35.90;15.40;;;;;;;-147.86;100.00;9994.13;102807;1290;600068;-45
2024/01/23 06:50:08;;;;;;;27.90;14.70;;;;;;;-147.86;100.00;-8835.82;105137;1264;59190;-46
2024/01/23 06:52:36;;;;;;;29.60;15.00;;;;;;;-147.86;100.00;-8498.58;105086;1270;61112;-46
2024/01/23 06:55:04;;;;;;;30.10;14.10;;;;;;;-147.86;100.00;-8388.85;105023;1264;71938;-45
2024/01/23 06:57:32;;;;;;;38.30;15.10;;;;;;;-147.86;100.00;-8350.20;105060;1270;63927;-45
2024/01/23 07:00:00;;;;;;;32.50;12.90;;;;;;;-147.86;100.00;-8284.90;105093;1271;71552;-45
2024/01/23 07:02:27;;;;;;;24.50;13.80;;;;;;;-147.86;100.00;-8194.09;105025;1266;215183;-45
2024/01/23 07:04:55;;;;;;;32.70;14.50;;;;;;;-147.86;100.00;-8070.43;105185;1264;59413;-47
2024/01/23 07:07:23;;;;;;;34.10;15.80;;;;;;;-147.86;100.00;-7964.93;105204;1261;70705;-45
2024/01/23 07:09:50;;;;;;;30.80;15.60;;;;;;;-147.86;100.00;-7796.43;105192;1266;65172;-45
2024/01/23 07:12:18;;;;;;;34.40;16.20;;;;;;;-147.86;100.00;-7675.07;105208;1266;70521;-45
2024/01/23 07:14:46;;;;;;;35.30;15.70;;;;;;;-147.86;100.00;-7620.58;105234;1266;60810;-45
2024/01/23 07:17:15;;;;;;;38.70;15.80;;;;;;;-147.86;100.00;-7574.20;105243;1266;59637;-45
2024/01/23 07:19:43;;;;;;;32.90;15.50;;;;;;;-147.86;100.00;-7564.52;105216;1267;70980;-46
2024/01/23 07:22:11;;;;;;;38.40;16.60;;;;;;;-147.86;100.00;-7436.98;105223;1266;64154;-45
2024/01/23 07:24:39;;;;;;;39.90;18.10;;;;;;;-147.86;100.00;-7361.62;105169;1264;72643;-46
2024/01/23 07:27:07;;;;;;;41.30;15.20;;;;;;;-147.86;100.00;-7388.66;105213;1264;59772;-46
2024/01/23 07:29:35;;;;;;;32.10;14.90;;;;;;;-147.86;100.00;-7304.41;105230;1267;59724;-46
2024/01/23 07:32:03;;;;;;;28.90;12.80;;;;;;;-147.86;100.00;-7232.91;105254;1262;71562;-45
2024/01/23 07:34:31;;;;;;;31.40;14.40;;;;;;;-147.86;100.00;-7176.85;105235;1264;64274;-45
2024/01/23 07:36:59;;;;;;;36.10;13.60;;;;;;;-147.86;100.00;-7153.27;105231;1263;72722;-45
2024/01/23 07:39:28;;;;;;;31.50;14.00;;;;;;;-147.86;100.00;-7082.54;105208;1262;59836;-45
2024/01/23 07:41:57;;;;;;;29.30;12.30;;;;;;;-147.86;100.00;-7103.79;105227;1266;59650;-46
2024/01/23 07:44:26;;;;;;;25.30;12.90;;;;;;;-147.86;100.00;-7087.55;105202;1264;71763;-46
2024/01/23 07:46:54;;;;;;;27.40;12.20;;;;;;;-147.86;100.00;-7114.23;105191;1264;65170;-46
2024/01/23 07:49:22;;;;;;;38.70;12.30;;;;;;;-147.86;100.00;-7114.24;105916;1257;71447;-45
2024/01/23 07:51:50;;;;;;;25.00;12.10;;;;;;;-147.86;100.00;-7189.22;105961;1257;59669;-46
2024/01/23 07:54:18;;;;;;;23.90;12.10;;;;;;;-147.86;100.00;-7264.99;105990;1256;60024;-46
2024/01/23 07:56:46;;;;;;;25.80;10.90;;;;;;;-147.86;100.00;-7461.73;105919;1251;71864;-46
2024/01/23 07:59:14;;;;;;;20.90;10.50;;;;;;;-147.86;100.00;-7664.66;105946;1251;63995;-46
2024/01/23 08:01:42;;;;;;;15.40;9.60;;;;;;;-147.86;100.00;-8080.11;105927;1254;71425;-47
2024/01/23 08:04:10;;;;;;;15.00;8.90;;;;;;;-147.86;100.00;-8382.68;105876;1251;59624;-46
2024/01/23 08:06:38;;;;;;;16.00;9.00;;;;;;;-147.86;100.00;-8466.87;105942;1257;59515;-46
2024/01/23 08:09:07;;;;;;;21.70;10.00;;;;;;;-147.86;100.00;-8122.59;105921;1254;73021;-46
2024/01/23 08:11:35;;;;;;;14.50;8.30;;;;;;;-147.86;100.00;-7801.40;105925;1254;65514;-45
2024/01/23 08:14:04;;;;;;;22.50;9.50;;;;;;;-147.86;100.00;-7380.92;106040;1254;71413;-45
2024/01/23 08:16:31;;;;;;;22.10;9.80;;;;;;;-147.86;100.00;-7270.38;105904;1256;59726;-46
2024/01/23 08:19:02;;;;;;;21.80;11.80;;;;;;;-147.86;100.00;-7137.04;105933;1257;61101;-46
2024/01/23 08:21:30;;;;;;;21.60;11.40;;;;;;;-147.86;100.00;-7493.75;105949;1257;72106;-46
2024/01/23 08:23:58;;;;;;;26.80;12.30;;;;;;;-147.86;100.00;-7526.65;105914;1256;63999;-45
2024/01/23 08:26:26;;;;;;;24.10;13.00;;;;;;;-147.86;100.00;-7841.26;105912;1251;73062;-46
2024/01/23 08:28:59;;;;;;;34.20;14.80;;;;;;;-147.86;100.00;-8357.09;105902;1257;59694;-45
2024/01/23 08:31:28;;;;;;;38.80;16.20;;;;;;;-147.86;100.00;-8253.19;105954;1251;60979;-47
2024/01/23 08:33:57;;;;;;;33.80;17.10;;;;;;;-147.86;100.00;-8662.42;105933;1256;72980;-46
2024/01/23 08:36:25;;;;;;;39.10;18.30;;;;;;;-147.86;100.00;-9207.57;105924;1251;63905;-46
2024/01/23 08:38:53;;;;;;;42.70;17.90;;;;;;;-147.86;100.00;-9570.71;105936;1254;71378;-45
2024/01/23 08:41:21;;;;;;;38.20;18.10;;;;;;;-147.86;100.00;-9974.76;105859;1253;60785;-47
2024/01/23 08:43:49;;;;;;;36.50;17.60;;;;;;;-147.86;100.00;-10507.38;105942;1256;59551;-46
2024/01/23 08:46:21;;;;;;;38.00;17.60;;;;;;;-147.86;100.00;-11069.22;105926;1253;72699;-47
2024/01/23 08:48:49;;;;;;;37.70;17.50;;;;;;;-147.86;100.00;-11125.60;105947;1251;64067;-48
2024/01/23 08:51:17;;;;;;;41.50;17.30;;;;;;;-147.86;100.00;-11193.96;105974;1255;75098;-46
2024/01/23 08:53:46;;;;;;;30.10;16.30;;;;;;;-147.86;100.00;-11351.11;105973;1254;59679;-48
2024/01/23 08:56:18;;;;;;;31.80;15.00;;;;;;;-147.86;100.00;-11767.34;105874;1251;60632;-46
2024/01/23 08:58:47;;;;;;;31.00;15.80;;;;;;;-147.86;100.00;-12790.30;105943;1251;75103;-45
2024/01/23 09:01:15;;;;;;;27.20;16.10;;;;;;;-147.86;100.00;-13143.06;105934;1251;63479;-47
2024/01/23 09:03:44;;;;;;;23.00;13.10;;;;;;;-147.86;100.00;-13484.99;105953;1251;72683;-46
2024/01/23 09:06:12;;;;;;;22.50;12.80;;;;;;;-147.86;100.00;-13961.56;105932;1257;60810;-46
2024/01/23 09:08:43;;;;;;;19.80;12.00;;;;;;;-147.86;100.00;-14524.49;105894;1251;62106;-48
2024/01/23 09:11:11;;;;;;;19.50;11.50;;;;;;;-147.86;100.00;-14984.70;105940;1257;72958;-47
2024/01/23 09:13:39;;;;;;;17.10;10.20;;;;;;;-147.86;100.00;-15251.65;105881;1251;64768;-45
2024/01/23 09:16:07;;;;;;;17.10;9.10;;;;;;;-147.86;100.00;-15434.85;105748;1257;74947;-46
2024/01/23 09:18:35;;;;;;;11.70;8.50;;;;;;;-147.86;100.00;-15433.70;105930;1251;61456;-45
2024/01/23 09:21:04;;;;;;;12.20;8.60;;;;;;;-147.86;100.00;-15468.41;105966;1251;60078;-46
2024/01/23 09:23:32;;;;;;;15.30;10.00;;;;;;;-147.86;100.00;-15804.36;105938;1257;73291;-47
2024/01/23 09:26:00;;;;;;;12.60;8.80;;;;;;;-147.86;100.00;-15987.93;105855;1251;65245;-47
2024/01/23 09:28:27;;;;;;;18.10;8.80;;;;;;;-147.86;100.00;-16201.58;105878;1256;74926;-46
2024/01/23 09:30:55;;;;;;;10.70;7.20;;;;;;;-147.86;100.00;-16313.79;105936;1256;59692;-44
2024/01/23 09:33:23;;;;;;;12.00;7.40;;;;;;;-147.86;100.00;-16362.77;105916;1251;62206;-47
2024/01/23 09:35:51;;;;;;;12.90;7.20;;;;;;;-147.86;100.00;-16603.39;105909;1256;73643;-46
2024/01/23 09:38:19;;;;;;;8.30;6.60;;;;;;;-147.86;100.00;-16705.18;105908;1256;65618;-47
2024/01/23 09:40:49;;;;;;;9.50;7.30;;;;;;;-147.86;100.00;-16794.25;105930;1251;74892;-46
2024/01/23 09:43:19;;;;;;;9.00;6.50;;;;;;;-147.86;100.00;-16983.95;105922;1254;60588;-46
2024/01/23 09:45:50;;;;;;;9.80;5.80;;;;;;;-147.86;100.00;-17086.50;105903;1256;60169;-46
2024/01/23 09:48:19;;;;;;;7.40;5.70;;;;;;;-147.86;100.00;-17301.15;105681;1254;72891;-46
2024/01/23 09:50:51;;;;;;;7.30;5.60;;;;;;;-147.86;100.00;-17456.13;105783;1257;65245;-46
2024/01/23 09:53:22;;;;;;;6.20;4.80;;;;;;;-147.86;100.00;-17464.22;105803;1253;73221;-45
2024/01/23 09:55:50;;;;;;;6.30;5.70;;;;;;;-147.86;100.00;-17507.01;105685;1256;61071;-45
2024/01/23 09:58:18;;;;;;;9.00;6.70;;;;;;;-147.86;100.00;-17609.17;105682;1254;59746;-48
2024/01/23 10:00:45;;;;;;;16.60;8.10;;;;;;;-147.86;100.00;-17609.17;105881;1254;71802;-45
2024/01/23 10:03:13;;;;;;;14.10;9.30;;;;;;;-147.86;100.00;-17609.17;105781;1257;65277;-46
2024/01/23 10:05:41;;;;;;;18.10;11.30;;;;;;;-147.86;100.00;-17609.17;105808;1253;74942;-45
2024/01/23 10:08:09;;;;;;;21.90;12.30;;;;;;;-147.86;100.00;-17609.17;105665;1258;60737;-45
2024/01/23 10:10:37;;;;;;;19.70;12.80;;;;;;;-147.86;100.00;-17609.17;105651;1254;59666;-47
2024/01/23 10:13:04;;;;;;;25.60;14.30;;;;;;;-147.86;100.00;-17609.17;105702;1256;73051;-46
2024/01/23 10:15:32;;;;;;;23.10;13.30;;;;;;;-147.86;100.00;-17609.17;105664;1254;64802;-46
2024/01/23 10:18:00;;;;;;;24.10;12.00;;;;;;;-147.86;100.00;-17609.17;105816;1254;72669;-46
2024/01/23 10:20:30;;;;;;;18.30;11.50;;;;;;;-147.86;100.00;-17609.17;105690;1260;59807;-45
2024/01/23 10:22:58;;;;;;;21.20;12.10;;;;;;;-147.86;100.00;-17609.17;105838;1257;61319;-46
2024/01/23 10:25:28;;;;;;;25.60;11.70;;;;;;;-147.86;100.00;-17609.17;105763;1253;73002;-45
2024/01/23 10:27:57;;;;;;;16.80;10.60;;;;;;;-147.86;100.00;-17609.17;105879;1253;66434;-46
2024/01/23 10:30:26;;;;;;;18.50;10.60;;;;;;;-147.86;100.00;-17609.17;105776;1257;72308;-46
2024/01/23 10:32:54;;;;;;;15.90;10.60;;;;;;;-147.86;100.00;-17609.17;105702;1254;59798;-47
2024/01/23 10:35:21;;;;;;;16.10;10.00;;;;;;;-147.86;100.00;-17609.17;105685;1254;62034;-47
2024/01/23 10:37:49;;;;;;;16.90;10.50;;;;;;;-147.86;100.00;-17609.17;105737;1254;71837;-46
2024/01/23 10:40:23;;;;;;;16.60;9.50;;;;;;;-147.86;100.00;-17609.17;105678;1254;64054;-47
2024/01/23 10:42:51;;;;;;;15.50;8.30;;;;;;;-147.86;100.00;-17609.17;105838;1254;73570;-46
2024/01/23 10:45:19;;;;;;;17.70;8.70;;;;;;;-147.86;100.00;-17609.17;105838;1254;59755;-45
2024/01/23 10:47:47;;;;;;;12.00;7.10;;;;;;;-147.86;100.00;-17609.17;105756;1251;60490;-47
2024/01/23 10:50:15;;;;;;;22.00;7.40;;;;;;;-147.86;100.00;-17609.17;105948;1255;74128;-46
2024/01/23 10:52:46;;;;;;;9.80;6.80;;;;;;;-147.86;100.00;-17609.17;105954;1251;63984;-46
2024/01/23 10:55:13;;;;;;;7.80;5.90;;;;;;;-147.86;100.00;-17609.17;105933;1257;72583;-45
2024/01/23 10:57:41;;;;;;;16.60;6.10;;;;;;;-147.86;100.00;-17609.17;105921;1257;63360;-45
2024/01/23 11:00:11;;;;;;;7.60;5.40;;;;;;;-147.86;100.00;-17609.17;105767;1251;60466;-45
2024/01/23 11:02:40;;;;;;;7.70;5.60;;;;;;;-147.86;100.00;-17609.17;105948;1251;72550;-45
2024/01/23 11:05:08;;;;;;;7.80;5.60;;;;;;;-147.86;100.00;-17609.17;105822;1257;63900;-45
2024/01/23 11:07:46;;;;;;;10.70;6.00;;;;;;;-147.86;100.00;-17609.17;105911;1251;74931;-46
2024/01/23 11:10:26;;;;;;;13.40;6.80;;;;;;;-147.86;100.00;-17609.17;105911;1253;62048;-47
2024/01/23 11:13:06;;;;;;;16.60;8.40;;;;;;;-147.86;100.00;-17609.17;105894;1251;60367;-44
2024/01/23 11:15:34;;;;;;;14.50;8.10;;;;;;;-147.86;100.00;-17609.17;105923;1251;74426;-47
2024/01/23 11:18:32;;;;;;;15.10;9.30;;;;;;;-147.86;100.00;-17609.17;106002;1257;66224;-45
2024/01/23 11:21:05;;;;;;;18.30;8.10;;;;;;;-147.86;100.00;-17609.17;105774;1254;71631;-46
2024/01/23 11:23:34;;;;;;;9.50;6.60;;;;;;;-147.86;100.00;-17609.17;105899;1256;61388;-47
2024/01/23 11:26:15;;;;;;;11.00;7.10;;;;;;;-147.86;100.00;-17609.17;105948;1257;60603;-45
2024/01/23 11:28:47;;;;;;;11.60;7.80;;;;;;;-147.86;100.00;-17609.17;105868;1251;73684;-46
2024/01/23 11:31:26;;;;;;;9.30;7.40;;;;;;;-147.86;100.00;-17609.17;105740;1257;64784;-47
2024/01/23 11:34:24;;;;;;;15.30;9.50;;;;;;;-147.86;100.00;-17609.17;106012;1251;73100;-48
2024/01/23 11:36:53;;;;;;;18.90;11.70;;;;;;;-147.86;100.00;-17609.17;105927;1257;61257;-45
2024/01/23 11:39:37;;;;;;;24.00;13.30;;;;;;;-147.86;100.00;-17609.17;105917;1251;60478;-47
2024/01/23 11:42:05;;;;;;;31.10;12.00;;;;;;;-147.86;100.00;-17609.17;105959;1254;73788;-47
2024/01/23 11:44:33;;;;;;;53.10;17.80;;;;;;;-147.86;100.00;-17609.17;105916;1251;68072;-45
2024/01/23 11:47:03;;;;;;;44.40;17.70;;;;;;;-147.86;100.00;-17609.17;105968;1256;72721;-46
2024/01/23 11:49:34;;;;;;;35.80;16.30;;;;;;;-147.86;100.00;-17609.17;105735;1259;60450;-49
2024/01/23 11:52:02;;;;;;;25.50;15.00;;;;;;;-147.86;100.00;-17609.17;105730;1251;60469;-49
2024/01/23 11:54:30;;;;;;;21.00;12.60;;;;;;;-147.86;100.00;-17609.17;105696;1251;74543;-47
2024/01/23 11:56:58;;;;;;;18.60;12.00;;;;;;;-147.86;100.00;-17609.17;105698;1251;65185;-47
2024/01/23 11:59:26;;;;;;;19.80;11.60;;;;;;;-147.86;100.00;-17609.17;105926;1257;72507;-46